sensor_id;sensor_type;location;lat;lon;timestamp;temperature;humidity
61016;DHT22;46902;52.920;6.536;2022-12-07T00:00:18;4.10;99.90
61016;DHT22;46902;52.920;6.536;2022-12-07T00:02:44;4.00;99.90
61016;DHT22;46902;52.920;6.536;2022-12-07T00:05:09;4.00;99.90
61016;DHT22;46902;52.920;6.536;2022-12-07T00:07:35;4.00;99.90
61016;DHT22;46902;52.920;6.536;2022-12-07T00:10:00;4.00;99.90
61016;DHT22;46902;52.920;6.536;2022-12-07T00:12:26;4.00;99.90
61016;DHT22;46902;52.920;6.536;2022-12-07T00:14:51;4.00;99.90
61016;DHT22;46902;52.920;6.536;2022-12-07T00:17:17;3.90;99.90
61016;DHT22;46902;52.920;6.536;2022-12-07T00:19:42;3.90;99.90
61016;DHT22;46902;52.920;6.536;2022-12-07T00:22:08;3.90;99.90
61016;DHT22;46902;52.920;6.536;2022-12-07T00:24:34;4.00;99.90
61016;DHT22;46902;52.920;6.536;2022-12-07T00:26:59;4.00;99.90
61016;DHT22;46902;52.920;6.536;2022-12-07T00:29:25;4.00;99.90
61016;DHT22;46902;52.920;6.536;2022-12-07T00:31:50;4.00;99.90
61016;DHT22;46902;52.920;6.536;2022-12-07T00:34:18;4.00;99.90
61016;DHT22;46902;52.920;6.536;2022-12-07T00:36:44;3.90;99.90
61016;DHT22;46902;52.920;6.536;2022-12-07T00:39:10;4.00;99.90
61016;DHT22;46902;52.920;6.536;2022-12-07T00:41:36;4.00;99.90
61016;DHT22;46902;52.920;6.536;2022-12-07T00:44:01;3.90;99.90
61016;DHT22;46902;52.920;6.536;2022-12-07T00:46:27;4.00;99.90
61016;DHT22;46902;52.920;6.536;2022-12-07T00:48:54;3.90;99.90
61016;DHT22;46902;52.920;6.536;2022-12-07T00:51:23;3.90;99.90
61016;DHT22;46902;52.920;6.536;2022-12-07T00:53:49;4.00;99.90
61016;DHT22;46902;52.920;6.536;2022-12-07T00:56:20;3.90;99.90
61016;DHT22;46902;52.920;6.536;2022-12-07T00:58:58;3.90;99.90
61016;DHT22;46902;52.920;6.536;2022-12-07T01:01:26;3.90;99.90
61016;DHT22;46902;52.920;6.536;2022-12-07T01:03:52;3.90;99.90
61016;DHT22;46902;52.920;6.536;2022-12-07T01:06:20;3.90;99.90
61016;DHT22;46902;52.920;6.536;2022-12-07T01:08:45;3.90;99.90
61016;DHT22;46902;52.920;6.536;2022-12-07T01:11:14;4.00;99.90
61016;DHT22;46902;52.920;6.536;2022-12-07T01:13:40;3.90;99.90
61016;DHT22;46902;52.920;6.536;2022-12-07T01:16:07;3.90;99.90
61016;DHT22;46902;52.920;6.536;2022-12-07T01:18:34;4.00;99.90
61016;DHT22;46902;52.920;6.536;2022-12-07T01:21:03;3.90;99.90
61016;DHT22;46902;52.920;6.536;2022-12-07T01:23:30;3.90;99.90
61016;DHT22;46902;52.920;6.536;2022-12-07T01:26:04;3.90;99.90
61016;DHT22;46902;52.920;6.536;2022-12-07T01:28:30;4.00;99.90
61016;DHT22;46902;52.920;6.536;2022-12-07T01:31:00;3.90;99.90
61016;DHT22;46902;52.920;6.536;2022-12-07T01:33:28;3.90;99.90
61016;DHT22;46902;52.920;6.536;2022-12-07T01:35:54;3.90;99.90
61016;DHT22;46902;52.920;6.536;2022-12-07T01:38:20;3.90;99.90
61016;DHT22;46902;52.920;6.536;2022-12-07T01:40:45;4.00;99.90
61016;DHT22;46902;52.920;6.536;2022-12-07T01:43:18;4.00;99.90
61016;DHT22;46902;52.920;6.536;2022-12-07T01:45:44;4.00;99.90
61016;DHT22;46902;52.920;6.536;2022-12-07T01:48:11;4.00;99.90
61016;DHT22;46902;52.920;6.536;2022-12-07T01:50:38;4.00;99.90
61016;DHT22;46902;52.920;6.536;2022-12-07T01:53:06;4.10;99.90
61016;DHT22;46902;52.920;6.536;2022-12-07T01:55:38;4.10;99.90
61016;DHT22;46902;52.920;6.536;2022-12-07T01:58:05;4.10;99.90
61016;DHT22;46902;52.920;6.536;2022-12-07T02:00:31;4.20;99.90
61016;DHT22;46902;52.920;6.536;2022-12-07T02:03:18;4.20;99.90
61016;DHT22;46902;52.920;6.536;2022-12-07T02:05:45;4.20;99.90
61016;DHT22;46902;52.920;6.536;2022-12-07T02:08:12;4.30;99.90
61016;DHT22;46902;52.920;6.536;2022-12-07T02:10:38;4.30;99.90
61016;DHT22;46902;52.920;6.536;2022-12-07T02:13:16;4.30;99.90
61016;DHT22;46902;52.920;6.536;2022-12-07T02:18:58;4.30;99.90
61016;DHT22;46902;52.920;6.536;2022-12-07T02:21:45;4.30;99.90
61016;DHT22;46902;52.920;6.536;2022-12-07T02:27:19;4.20;99.90
61016;DHT22;46902;52.920;6.536;2022-12-07T02:30:06;4.10;99.90
61016;DHT22;46902;52.920;6.536;2022-12-07T02:35:05;4.00;99.90
61016;DHT22;46902;52.920;6.536;2022-12-07T02:37:47;4.00;99.90
61016;DHT22;46902;52.920;6.536;2022-12-07T02:40:25;4.00;99.90
61016;DHT22;46902;52.920;6.536;2022-12-07T02:43:19;4.00;99.90
61016;DHT22;46902;52.920;6.536;2022-12-07T02:45:46;4.00;99.90
61016;DHT22;46902;52.920;6.536;2022-12-07T02:48:14;4.00;99.90
61016;DHT22;46902;52.920;6.536;2022-12-07T02:50:52;4.00;99.90
61016;DHT22;46902;52.920;6.536;2022-12-07T02:53:35;4.00;99.90
61016;DHT22;46902;52.920;6.536;2022-12-07T02:58:50;3.90;99.90
61016;DHT22;46902;52.920;6.536;2022-12-07T03:07:08;3.90;99.90
61016;DHT22;46902;52.920;6.536;2022-12-07T03:09:53;3.90;99.90
61016;DHT22;46902;52.920;6.536;2022-12-07T03:12:29;3.90;99.90
61016;DHT22;46902;52.920;6.536;2022-12-07T03:15:04;3.90;99.90
61016;DHT22;46902;52.920;6.536;2022-12-07T03:17:34;3.90;99.90
61016;DHT22;46902;52.920;6.536;2022-12-07T03:20:04;3.90;99.90
61016;DHT22;46902;52.920;6.536;2022-12-07T03:22:33;3.90;99.90
61016;DHT22;46902;52.920;6.536;2022-12-07T03:25:04;4.00;99.90
61016;DHT22;46902;52.920;6.536;2022-12-07T03:27:34;4.10;99.90
61016;DHT22;46902;52.920;6.536;2022-12-07T03:32:42;4.00;99.90
61016;DHT22;46902;52.920;6.536;2022-12-07T03:35:42;4.00;99.90
61016;DHT22;46902;52.920;6.536;2022-12-07T03:40:49;3.90;99.90
61016;DHT22;46902;52.920;6.536;2022-12-07T03:43:16;3.90;99.90
61016;DHT22;46902;52.920;6.536;2022-12-07T03:45:44;3.90;99.90
61016;DHT22;46902;52.920;6.536;2022-12-07T03:54:21;3.90;99.90
61016;DHT22;46902;52.920;6.536;2022-12-07T03:56:49;3.90;99.90
61016;DHT22;46902;52.920;6.536;2022-12-07T03:59:16;3.80;99.90
61016;DHT22;46902;52.920;6.536;2022-12-07T04:01:44;3.80;99.90
61016;DHT22;46902;52.920;6.536;2022-12-07T04:04:10;3.80;99.90
61016;DHT22;46902;52.920;6.536;2022-12-07T04:06:35;3.90;99.90
61016;DHT22;46902;52.920;6.536;2022-12-07T04:09:01;3.90;99.90
61016;DHT22;46902;52.920;6.536;2022-12-07T04:11:26;3.90;99.90
61016;DHT22;46902;52.920;6.536;2022-12-07T04:13:52;3.90;99.90
61016;DHT22;46902;52.920;6.536;2022-12-07T04:16:36;3.90;99.90
61016;DHT22;46902;52.920;6.536;2022-12-07T04:19:02;3.90;99.90
61016;DHT22;46902;52.920;6.536;2022-12-07T04:21:27;3.90;99.90
61016;DHT22;46902;52.920;6.536;2022-12-07T04:23:53;3.90;99.90
61016;DHT22;46902;52.920;6.536;2022-12-07T04:26:18;3.90;99.90
61016;DHT22;46902;52.920;6.536;2022-12-07T04:28:44;3.80;99.90
61016;DHT22;46902;52.920;6.536;2022-12-07T04:31:09;3.80;99.90
61016;DHT22;46902;52.920;6.536;2022-12-07T04:33:35;3.80;99.90
61016;DHT22;46902;52.920;6.536;2022-12-07T04:36:01;3.70;99.90
61016;DHT22;46902;52.920;6.536;2022-12-07T04:38:27;3.80;99.90
61016;DHT22;46902;52.920;6.536;2022-12-07T04:40:52;3.80;99.90
61016;DHT22;46902;52.920;6.536;2022-12-07T04:43:18;3.80;99.90
61016;DHT22;46902;52.920;6.536;2022-12-07T04:45:47;3.80;99.90
61016;DHT22;46902;52.920;6.536;2022-12-07T04:48:13;3.90;99.90
61016;DHT22;46902;52.920;6.536;2022-12-07T04:50:39;3.80;99.90
61016;DHT22;46902;52.920;6.536;2022-12-07T04:53:04;3.80;99.90
61016;DHT22;46902;52.920;6.536;2022-12-07T04:55:30;3.80;99.90
61016;DHT22;46902;52.920;6.536;2022-12-07T04:57:55;3.70;99.90
61016;DHT22;46902;52.920;6.536;2022-12-07T05:00:21;3.70;99.90
61016;DHT22;46902;52.920;6.536;2022-12-07T05:02:46;3.70;99.90
61016;DHT22;46902;52.920;6.536;2022-12-07T05:05:12;3.70;99.90
61016;DHT22;46902;52.920;6.536;2022-12-07T05:07:38;3.60;99.90
61016;DHT22;46902;52.920;6.536;2022-12-07T05:10:04;3.60;99.90
61016;DHT22;46902;52.920;6.536;2022-12-07T05:12:30;3.60;99.90
61016;DHT22;46902;52.920;6.536;2022-12-07T05:14:55;3.70;99.90
61016;DHT22;46902;52.920;6.536;2022-12-07T05:17:21;3.60;99.90
61016;DHT22;46902;52.920;6.536;2022-12-07T05:19:46;3.60;99.90
61016;DHT22;46902;52.920;6.536;2022-12-07T05:22:12;3.60;99.90
61016;DHT22;46902;52.920;6.536;2022-12-07T05:24:38;3.60;99.90
61016;DHT22;46902;52.920;6.536;2022-12-07T05:27:04;3.60;99.90
61016;DHT22;46902;52.920;6.536;2022-12-07T05:29:29;3.50;99.90
61016;DHT22;46902;52.920;6.536;2022-12-07T05:31:55;3.50;99.90
61016;DHT22;46902;52.920;6.536;2022-12-07T05:34:20;3.50;99.90
61016;DHT22;46902;52.920;6.536;2022-12-07T05:36:46;3.40;99.90
61016;DHT22;46902;52.920;6.536;2022-12-07T05:39:12;3.40;99.90
61016;DHT22;46902;52.920;6.536;2022-12-07T05:41:37;3.30;99.90
61016;DHT22;46902;52.920;6.536;2022-12-07T05:44:21;3.40;99.90
61016;DHT22;46902;52.920;6.536;2022-12-07T05:46:47;3.30;99.90
61016;DHT22;46902;52.920;6.536;2022-12-07T05:49:12;3.30;99.90
61016;DHT22;46902;52.920;6.536;2022-12-07T05:51:38;3.30;99.90
61016;DHT22;46902;52.920;6.536;2022-12-07T05:54:04;3.30;99.90
61016;DHT22;46902;52.920;6.536;2022-12-07T05:56:29;3.30;99.90
61016;DHT22;46902;52.920;6.536;2022-12-07T05:58:55;3.20;99.90
61016;DHT22;46902;52.920;6.536;2022-12-07T06:01:39;3.20;99.90
61016;DHT22;46902;52.920;6.536;2022-12-07T06:04:05;3.20;99.90
61016;DHT22;46902;52.920;6.536;2022-12-07T06:06:31;3.20;99.90
61016;DHT22;46902;52.920;6.536;2022-12-07T06:08:56;3.20;99.90
61016;DHT22;46902;52.920;6.536;2022-12-07T06:11:22;3.20;99.90
61016;DHT22;46902;52.920;6.536;2022-12-07T06:14:06;3.20;99.90
61016;DHT22;46902;52.920;6.536;2022-12-07T06:16:31;3.30;99.90
61016;DHT22;46902;52.920;6.536;2022-12-07T06:18:57;3.20;99.90
61016;DHT22;46902;52.920;6.536;2022-12-07T06:21:22;3.30;99.90
61016;DHT22;46902;52.920;6.536;2022-12-07T06:23:48;3.30;99.90
61016;DHT22;46902;52.920;6.536;2022-12-07T06:26:14;3.40;99.90
61016;DHT22;46902;52.920;6.536;2022-12-07T06:28:39;3.40;99.90
61016;DHT22;46902;52.920;6.536;2022-12-07T06:31:06;3.40;99.90
61016;DHT22;46902;52.920;6.536;2022-12-07T06:33:31;3.40;99.90
61016;DHT22;46902;52.920;6.536;2022-12-07T06:35:57;3.50;99.90
61016;DHT22;46902;52.920;6.536;2022-12-07T06:38:22;3.50;99.90
61016;DHT22;46902;52.920;6.536;2022-12-07T06:40:48;3.50;99.90
61016;DHT22;46902;52.920;6.536;2022-12-07T06:43:14;3.50;99.90
61016;DHT22;46902;52.920;6.536;2022-12-07T06:45:41;3.50;99.90
61016;DHT22;46902;52.920;6.536;2022-12-07T06:48:06;3.60;99.90
61016;DHT22;46902;52.920;6.536;2022-12-07T06:50:32;3.60;99.90
61016;DHT22;46902;52.920;6.536;2022-12-07T06:52:57;3.50;99.90
61016;DHT22;46902;52.920;6.536;2022-12-07T06:55:23;3.50;99.90
61016;DHT22;46902;52.920;6.536;2022-12-07T06:57:49;3.50;99.90
61016;DHT22;46902;52.920;6.536;2022-12-07T07:00:14;3.60;99.90
61016;DHT22;46902;52.920;6.536;2022-12-07T07:02:40;3.60;99.90
61016;DHT22;46902;52.920;6.536;2022-12-07T07:05:06;3.60;99.90
61016;DHT22;46902;52.920;6.536;2022-12-07T07:07:31;3.60;99.90
61016;DHT22;46902;52.920;6.536;2022-12-07T07:09:57;3.60;99.90
61016;DHT22;46902;52.920;6.536;2022-12-07T07:12:23;3.70;99.90
61016;DHT22;46902;52.920;6.536;2022-12-07T07:14:48;3.70;99.90
61016;DHT22;46902;52.920;6.536;2022-12-07T07:17:14;3.70;99.90
61016;DHT22;46902;52.920;6.536;2022-12-07T07:19:40;3.80;99.90
61016;DHT22;46902;52.920;6.536;2022-12-07T07:22:06;3.80;99.90
61016;DHT22;46902;52.920;6.536;2022-12-07T07:24:31;3.80;99.90
61016;DHT22;46902;52.920;6.536;2022-12-07T07:26:57;3.70;99.90
61016;DHT22;46902;52.920;6.536;2022-12-07T07:29:22;3.70;99.90
61016;DHT22;46902;52.920;6.536;2022-12-07T07:31:48;3.70;99.90
61016;DHT22;46902;52.920;6.536;2022-12-07T07:34:13;3.60;99.90
61016;DHT22;46902;52.920;6.536;2022-12-07T07:36:39;3.60;99.90
61016;DHT22;46902;52.920;6.536;2022-12-07T07:39:05;3.50;99.90
61016;DHT22;46902;52.920;6.536;2022-12-07T07:41:33;3.50;99.90
61016;DHT22;46902;52.920;6.536;2022-12-07T07:43:59;3.50;99.90
61016;DHT22;46902;52.920;6.536;2022-12-07T07:46:24;3.50;99.90
61016;DHT22;46902;52.920;6.536;2022-12-07T07:48:50;3.50;99.90
61016;DHT22;46902;52.920;6.536;2022-12-07T07:51:16;3.50;99.90
61016;DHT22;46902;52.920;6.536;2022-12-07T07:53:41;3.50;99.90
61016;DHT22;46902;52.920;6.536;2022-12-07T07:56:07;3.50;99.90
61016;DHT22;46902;52.920;6.536;2022-12-07T07:58:32;3.50;99.90
61016;DHT22;46902;52.920;6.536;2022-12-07T08:01:04;3.50;99.90
61016;DHT22;46902;52.920;6.536;2022-12-07T08:03:29;3.60;99.90
61016;DHT22;46902;52.920;6.536;2022-12-07T08:05:55;3.60;99.90
61016;DHT22;46902;52.920;6.536;2022-12-07T08:08:20;3.60;99.90
61016;DHT22;46902;52.920;6.536;2022-12-07T08:10:46;3.60;99.90
61016;DHT22;46902;52.920;6.536;2022-12-07T08:13:11;3.70;99.90
61016;DHT22;46902;52.920;6.536;2022-12-07T08:15:40;3.70;99.90
61016;DHT22;46902;52.920;6.536;2022-12-07T08:18:06;3.70;99.90
61016;DHT22;46902;52.920;6.536;2022-12-07T08:20:34;3.70;99.90
61016;DHT22;46902;52.920;6.536;2022-12-07T08:23:00;3.70;99.90
61016;DHT22;46902;52.920;6.536;2022-12-07T08:25:27;3.70;99.90
61016;DHT22;46902;52.920;6.536;2022-12-07T08:27:53;3.70;99.90
61016;DHT22;46902;52.920;6.536;2022-12-07T08:30:19;3.70;99.90
61016;DHT22;46902;52.920;6.536;2022-12-07T08:32:45;3.70;99.90
61016;DHT22;46902;52.920;6.536;2022-12-07T08:35:11;3.70;99.90
61016;DHT22;46902;52.920;6.536;2022-12-07T08:37:38;3.70;99.90
61016;DHT22;46902;52.920;6.536;2022-12-07T08:40:05;3.80;99.90
61016;DHT22;46902;52.920;6.536;2022-12-07T08:42:31;3.80;99.90
61016;DHT22;46902;52.920;6.536;2022-12-07T08:45:07;3.90;99.90
61016;DHT22;46902;52.920;6.536;2022-12-07T08:47:36;3.90;99.90
61016;DHT22;46902;52.920;6.536;2022-12-07T08:50:03;3.90;99.90
61016;DHT22;46902;52.920;6.536;2022-12-07T08:52:30;3.90;99.90
61016;DHT22;46902;52.920;6.536;2022-12-07T08:54:57;3.90;99.90
61016;DHT22;46902;52.920;6.536;2022-12-07T08:57:23;3.90;99.90
61016;DHT22;46902;52.920;6.536;2022-12-07T08:59:49;3.90;99.90
61016;DHT22;46902;52.920;6.536;2022-12-07T09:02:14;3.90;99.90
61016;DHT22;46902;52.920;6.536;2022-12-07T09:04:40;3.90;99.90
61016;DHT22;46902;52.920;6.536;2022-12-07T09:07:06;3.80;99.90
61016;DHT22;46902;52.920;6.536;2022-12-07T09:09:31;3.90;99.90
61016;DHT22;46902;52.920;6.536;2022-12-07T09:11:57;3.90;99.90
61016;DHT22;46902;52.920;6.536;2022-12-07T09:14:23;3.90;99.90
61016;DHT22;46902;52.920;6.536;2022-12-07T09:16:49;3.90;99.90
61016;DHT22;46902;52.920;6.536;2022-12-07T09:19:14;3.90;99.90
61016;DHT22;46902;52.920;6.536;2022-12-07T09:21:40;3.90;99.90
61016;DHT22;46902;52.920;6.536;2022-12-07T09:24:06;3.90;99.90
61016;DHT22;46902;52.920;6.536;2022-12-07T09:26:31;3.90;99.90
61016;DHT22;46902;52.920;6.536;2022-12-07T09:28:57;3.90;99.90
61016;DHT22;46902;52.920;6.536;2022-12-07T09:31:22;4.10;99.90
61016;DHT22;46902;52.920;6.536;2022-12-07T09:33:56;4.20;99.90
61016;DHT22;46902;52.920;6.536;2022-12-07T09:36:22;4.30;99.90
61016;DHT22;46902;52.920;6.536;2022-12-07T09:38:47;4.40;99.90
61016;DHT22;46902;52.920;6.536;2022-12-07T09:41:13;4.50;99.90
61016;DHT22;46902;52.920;6.536;2022-12-07T09:43:40;4.60;99.90
61016;DHT22;46902;52.920;6.536;2022-12-07T09:46:06;4.60;99.90
61016;DHT22;46902;52.920;6.536;2022-12-07T09:48:36;4.60;99.90
61016;DHT22;46902;52.920;6.536;2022-12-07T09:51:03;4.60;99.90
61016;DHT22;46902;52.920;6.536;2022-12-07T09:53:38;4.60;99.90
61016;DHT22;46902;52.920;6.536;2022-12-07T09:56:05;4.60;99.90
61016;DHT22;46902;52.920;6.536;2022-12-07T09:58:32;4.60;99.90
61016;DHT22;46902;52.920;6.536;2022-12-07T10:03:34;4.60;99.90
61016;DHT22;46902;52.920;6.536;2022-12-07T10:06:01;4.60;99.90
61016;DHT22;46902;52.920;6.536;2022-12-07T10:08:27;4.60;99.90
61016;DHT22;46902;52.920;6.536;2022-12-07T10:10:54;4.60;99.90
61016;DHT22;46902;52.920;6.536;2022-12-07T10:13:37;4.60;99.90
61016;DHT22;46902;52.920;6.536;2022-12-07T10:16:03;4.70;99.90
61016;DHT22;46902;52.920;6.536;2022-12-07T10:23:39;4.80;99.90
61016;DHT22;46902;52.920;6.536;2022-12-07T10:28:52;5.00;99.90
61016;DHT22;46902;52.920;6.536;2022-12-07T10:31:20;5.00;99.90
61016;DHT22;46902;52.920;6.536;2022-12-07T10:33:53;5.10;99.90
61016;DHT22;46902;52.920;6.536;2022-12-07T10:36:26;5.20;99.90
61016;DHT22;46902;52.920;6.536;2022-12-07T10:39:13;5.30;99.90
61016;DHT22;46902;52.920;6.536;2022-12-07T10:41:56;5.30;99.90
61016;DHT22;46902;52.920;6.536;2022-12-07T10:44:33;5.50;99.90
61016;DHT22;46902;52.920;6.536;2022-12-07T10:50:19;5.70;99.90
61016;DHT22;46902;52.920;6.536;2022-12-07T10:58:24;5.70;99.90
61016;DHT22;46902;52.920;6.536;2022-12-07T11:01:01;5.70;99.90
61016;DHT22;46902;52.920;6.536;2022-12-07T11:03:55;5.70;99.90
61016;DHT22;46902;52.920;6.536;2022-12-07T11:06:38;5.80;99.90
61016;DHT22;46902;52.920;6.536;2022-12-07T11:09:36;5.80;99.90
61016;DHT22;46902;52.920;6.536;2022-12-07T11:12:15;5.90;99.90
61016;DHT22;46902;52.920;6.536;2022-12-07T11:14:54;5.90;99.90
61016;DHT22;46902;52.920;6.536;2022-12-07T11:17:56;6.00;99.90
61016;DHT22;46902;52.920;6.536;2022-12-07T11:36:52;6.00;99.90
61016;DHT22;46902;52.920;6.536;2022-12-07T11:39:26;6.00;99.90
61016;DHT22;46902;52.920;6.536;2022-12-07T11:42:14;6.10;99.90
61016;DHT22;46902;52.920;6.536;2022-12-07T11:44:50;6.20;99.90
61016;DHT22;46902;52.920;6.536;2022-12-07T11:52:41;6.30;99.90
61016;DHT22;46902;52.920;6.536;2022-12-07T11:55:40;6.50;99.90
61016;DHT22;46902;52.920;6.536;2022-12-07T12:03:56;7.00;99.90
61016;DHT22;46902;52.920;6.536;2022-12-07T12:06:24;7.30;99.90
61016;DHT22;46902;52.920;6.536;2022-12-07T12:09:22;7.50;99.90
61016;DHT22;46902;52.920;6.536;2022-12-07T12:17:16;7.50;99.90
61016;DHT22;46902;52.920;6.536;2022-12-07T12:22:42;7.50;99.90
61016;DHT22;46902;52.920;6.536;2022-12-07T12:25:42;7.60;99.90
61016;DHT22;46902;52.920;6.536;2022-12-07T12:28:41;7.70;99.90
61016;DHT22;46902;52.920;6.536;2022-12-07T12:31:16;8.10;99.90
61016;DHT22;46902;52.920;6.536;2022-12-07T12:33:58;9.00;99.90
61016;DHT22;46902;52.920;6.536;2022-12-07T12:39:12;10.00;99.90
61016;DHT22;46902;52.920;6.536;2022-12-07T12:47:02;8.80;99.90
61016;DHT22;46902;52.920;6.536;2022-12-07T12:51:55;7.90;99.90
61016;DHT22;46902;52.920;6.536;2022-12-07T12:54:23;7.50;99.90
61016;DHT22;46902;52.920;6.536;2022-12-07T12:57:04;7.20;99.90
61016;DHT22;46902;52.920;6.536;2022-12-07T12:59:32;6.90;99.90
61016;DHT22;46902;52.920;6.536;2022-12-07T13:15:53;5.80;99.90
61016;DHT22;46902;52.920;6.536;2022-12-07T13:20:58;5.60;99.90
61016;DHT22;46902;52.920;6.536;2022-12-07T13:26:17;5.40;99.90
61016;DHT22;46902;52.920;6.536;2022-12-07T13:28:46;5.40;99.90
61016;DHT22;46902;52.920;6.536;2022-12-07T13:33:56;5.30;99.90
61016;DHT22;46902;52.920;6.536;2022-12-07T13:36:24;5.30;99.90
61016;DHT22;46902;52.920;6.536;2022-12-07T13:41:22;5.40;99.90
61016;DHT22;46902;52.920;6.536;2022-12-07T13:43:59;5.30;99.90
61016;DHT22;46902;52.920;6.536;2022-12-07T13:49:16;5.40;99.90
61016;DHT22;46902;52.920;6.536;2022-12-07T13:51:42;5.40;99.90
61016;DHT22;46902;52.920;6.536;2022-12-07T13:54:12;5.30;99.90
61016;DHT22;46902;52.920;6.536;2022-12-07T13:56:38;5.30;99.90
61016;DHT22;46902;52.920;6.536;2022-12-07T13:59:10;5.30;99.90
61016;DHT22;46902;52.920;6.536;2022-12-07T14:01:38;5.30;99.90
61016;DHT22;46902;52.920;6.536;2022-12-07T14:04:35;5.30;99.90
61016;DHT22;46902;52.920;6.536;2022-12-07T14:07:20;5.30;99.90
61016;DHT22;46902;52.920;6.536;2022-12-07T14:10:04;5.30;99.90
61016;DHT22;46902;52.920;6.536;2022-12-07T14:12:31;5.20;99.90
61016;DHT22;46902;52.920;6.536;2022-12-07T14:14:58;5.20;99.90
61016;DHT22;46902;52.920;6.536;2022-12-07T14:17:26;5.20;99.90
61016;DHT22;46902;52.920;6.536;2022-12-07T14:20:00;5.20;99.90
61016;DHT22;46902;52.920;6.536;2022-12-07T14:22:37;5.20;99.90
61016;DHT22;46902;52.920;6.536;2022-12-07T14:25:17;5.20;99.90
61016;DHT22;46902;52.920;6.536;2022-12-07T14:27:59;5.20;99.90
61016;DHT22;46902;52.920;6.536;2022-12-07T14:30:33;5.20;99.90
61016;DHT22;46902;52.920;6.536;2022-12-07T14:33:01;5.10;99.90
61016;DHT22;46902;52.920;6.536;2022-12-07T14:35:29;5.20;99.90
61016;DHT22;46902;52.920;6.536;2022-12-07T14:37:55;5.10;99.90
61016;DHT22;46902;52.920;6.536;2022-12-07T14:40:23;5.10;99.90
61016;DHT22;46902;52.920;6.536;2022-12-07T14:42:52;5.20;99.90
61016;DHT22;46902;52.920;6.536;2022-12-07T14:45:21;5.10;99.90
61016;DHT22;46902;52.920;6.536;2022-12-07T14:47:47;5.20;99.90
61016;DHT22;46902;52.920;6.536;2022-12-07T14:50:18;5.20;99.90
61016;DHT22;46902;52.920;6.536;2022-12-07T14:52:48;5.20;99.90
61016;DHT22;46902;52.920;6.536;2022-12-07T14:55:23;5.10;99.90
61016;DHT22;46902;52.920;6.536;2022-12-07T14:57:49;5.10;99.90
61016;DHT22;46902;52.920;6.536;2022-12-07T15:00:16;5.10;99.90
61016;DHT22;46902;52.920;6.536;2022-12-07T15:02:43;5.10;99.90
61016;DHT22;46902;52.920;6.536;2022-12-07T15:05:09;5.10;99.90
61016;DHT22;46902;52.920;6.536;2022-12-07T15:07:36;5.10;99.90
61016;DHT22;46902;52.920;6.536;2022-12-07T15:10:02;5.00;99.90
61016;DHT22;46902;52.920;6.536;2022-12-07T15:12:27;5.00;99.90
61016;DHT22;46902;52.920;6.536;2022-12-07T15:14:53;5.00;99.90
61016;DHT22;46902;52.920;6.536;2022-12-07T15:17:18;5.00;99.90
61016;DHT22;46902;52.920;6.536;2022-12-07T15:19:44;5.00;99.90
61016;DHT22;46902;52.920;6.536;2022-12-07T15:22:09;5.00;99.90
61016;DHT22;46902;52.920;6.536;2022-12-07T15:24:36;5.00;99.90
61016;DHT22;46902;52.920;6.536;2022-12-07T15:27:02;5.00;99.90
61016;DHT22;46902;52.920;6.536;2022-12-07T15:29:29;5.00;99.90
61016;DHT22;46902;52.920;6.536;2022-12-07T15:31:56;5.00;99.90
61016;DHT22;46902;52.920;6.536;2022-12-07T15:34:22;5.00;99.90
61016;DHT22;46902;52.920;6.536;2022-12-07T15:36:48;5.00;99.90
61016;DHT22;46902;52.920;6.536;2022-12-07T15:39:14;5.00;99.90
61016;DHT22;46902;52.920;6.536;2022-12-07T15:41:39;5.00;99.90
61016;DHT22;46902;52.920;6.536;2022-12-07T15:44:05;5.00;99.90
61016;DHT22;46902;52.920;6.536;2022-12-07T15:46:49;5.00;99.90
61016;DHT22;46902;52.920;6.536;2022-12-07T15:49:17;5.00;99.90
61016;DHT22;46902;52.920;6.536;2022-12-07T15:51:44;5.00;99.90
61016;DHT22;46902;52.920;6.536;2022-12-07T15:54:20;5.00;99.90
61016;DHT22;46902;52.920;6.536;2022-12-07T15:56:46;4.90;99.90
61016;DHT22;46902;52.920;6.536;2022-12-07T15:59:12;4.90;99.90
61016;DHT22;46902;52.920;6.536;2022-12-07T16:01:38;4.90;99.90
61016;DHT22;46902;52.920;6.536;2022-12-07T16:04:04;4.90;99.90
61016;DHT22;46902;52.920;6.536;2022-12-07T16:06:29;4.80;99.90
61016;DHT22;46902;52.920;6.536;2022-12-07T16:08:55;4.80;99.90
61016;DHT22;46902;52.920;6.536;2022-12-07T16:11:21;4.80;99.90
61016;DHT22;46902;52.920;6.536;2022-12-07T16:13:46;4.80;99.90
61016;DHT22;46902;52.920;6.536;2022-12-07T16:16:14;4.80;99.90
61016;DHT22;46902;52.920;6.536;2022-12-07T16:18:43;4.80;99.90
61016;DHT22;46902;52.920;6.536;2022-12-07T16:21:08;4.80;99.90
61016;DHT22;46902;52.920;6.536;2022-12-07T16:23:34;4.80;99.90
61016;DHT22;46902;52.920;6.536;2022-12-07T16:26:22;4.80;99.90
61016;DHT22;46902;52.920;6.536;2022-12-07T16:28:52;4.70;99.90
61016;DHT22;46902;52.920;6.536;2022-12-07T16:31:20;4.60;99.90
61016;DHT22;46902;52.920;6.536;2022-12-07T16:33:47;4.60;99.90
61016;DHT22;46902;52.920;6.536;2022-12-07T16:36:13;4.60;99.90
61016;DHT22;46902;52.920;6.536;2022-12-07T16:38:41;4.60;99.90
61016;DHT22;46902;52.920;6.536;2022-12-07T16:41:08;4.60;99.90
61016;DHT22;46902;52.920;6.536;2022-12-07T16:43:34;4.50;99.90
61016;DHT22;46902;52.920;6.536;2022-12-07T16:46:00;4.50;99.90
61016;DHT22;46902;52.920;6.536;2022-12-07T16:48:26;4.40;99.90
61016;DHT22;46902;52.920;6.536;2022-12-07T16:50:52;4.40;99.90
61016;DHT22;46902;52.920;6.536;2022-12-07T16:53:19;4.40;99.90
61016;DHT22;46902;52.920;6.536;2022-12-07T16:55:46;4.40;99.90
61016;DHT22;46902;52.920;6.536;2022-12-07T16:58:13;4.40;99.90
61016;DHT22;46902;52.920;6.536;2022-12-07T17:00:39;4.40;99.90
61016;DHT22;46902;52.920;6.536;2022-12-07T17:03:06;4.40;99.90
61016;DHT22;46902;52.920;6.536;2022-12-07T17:05:31;4.40;99.90
61016;DHT22;46902;52.920;6.536;2022-12-07T17:07:58;4.40;99.90
61016;DHT22;46902;52.920;6.536;2022-12-07T17:10:24;4.40;99.90
61016;DHT22;46902;52.920;6.536;2022-12-07T17:12:50;4.40;99.90
61016;DHT22;46902;52.920;6.536;2022-12-07T17:15:16;4.40;99.90
61016;DHT22;46902;52.920;6.536;2022-12-07T17:17:50;4.30;99.90
61016;DHT22;46902;52.920;6.536;2022-12-07T17:20:16;4.40;99.90
61016;DHT22;46902;52.920;6.536;2022-12-07T17:22:43;4.40;99.90
61016;DHT22;46902;52.920;6.536;2022-12-07T17:25:09;4.40;99.90
61016;DHT22;46902;52.920;6.536;2022-12-07T17:27:35;4.30;99.90
61016;DHT22;46902;52.920;6.536;2022-12-07T17:30:01;4.30;99.90
61016;DHT22;46902;52.920;6.536;2022-12-07T17:32:27;4.30;99.90
61016;DHT22;46902;52.920;6.536;2022-12-07T17:34:52;4.30;99.90
61016;DHT22;46902;52.920;6.536;2022-12-07T17:37:18;4.20;99.90
61016;DHT22;46902;52.920;6.536;2022-12-07T17:39:44;4.20;99.90
61016;DHT22;46902;52.920;6.536;2022-12-07T17:42:09;4.20;99.90
61016;DHT22;46902;52.920;6.536;2022-12-07T17:44:53;4.10;99.90
61016;DHT22;46902;52.920;6.536;2022-12-07T17:47:19;4.20;99.90
61016;DHT22;46902;52.920;6.536;2022-12-07T17:49:46;4.10;99.90
61016;DHT22;46902;52.920;6.536;2022-12-07T17:52:12;4.10;99.90
61016;DHT22;46902;52.920;6.536;2022-12-07T17:54:57;4.10;99.90
61016;DHT22;46902;52.920;6.536;2022-12-07T17:57:22;4.10;99.90